Terminal Aerodrome Forecast
Issued by NWS Springfield, MO

Home | Current Version | Previous Version | Text Only | Print | Product List | Glossary On
Versions: 1 2 3 4 5 6 7 8 9 10 11 12 13 14 15
931
FTUS43 KSGF 121120
TAFSGF
TAF
KSGF 121120Z 1212/1312 33010KT P6SM FEW020
     FM121900 30008KT P6SM SKC
     FM130100 26005KT P6SM SKC
     FM131000 21008KT P6SM SKC=

USA.gov is the U.S. government's official web portal to all federal, state and local government web resources and services.